createdAt,value
2023-01-26T00:01:23.981Z,0.90
2023-01-26T00:03:52.249Z,0.90
2023-01-26T00:06:21.710Z,0.80
2023-01-26T00:08:52.363Z,0.80
2023-01-26T00:11:24.219Z,0.80
2023-01-26T00:13:52.412Z,0.80
2023-01-26T00:16:20.886Z,0.70
2023-01-26T00:18:48.715Z,0.80
2023-01-26T00:21:18.754Z,0.80
2023-01-26T00:23:47.190Z,0.70
2023-01-26T00:26:18.925Z,0.80
2023-01-26T00:28:47.111Z,0.80
2023-01-26T00:31:16.994Z,0.80
2023-01-26T00:33:45.156Z,0.70
2023-01-26T00:36:13.698Z,0.80
2023-01-26T00:38:42.074Z,0.80
2023-01-26T00:41:30.639Z,0.80
2023-01-26T00:43:59.853Z,0.80
2023-01-26T00:46:27.728Z,0.70
2023-01-26T00:48:55.603Z,0.70
2023-01-26T00:51:23.800Z,0.70
2023-01-26T00:53:51.644Z,0.70
2023-01-26T00:56:19.480Z,0.70
2023-01-26T00:58:47.499Z,0.70
2023-01-26T01:01:16.779Z,0.70
2023-01-26T01:03:44.756Z,0.70
2023-01-26T01:06:12.640Z,0.70
2023-01-26T01:08:40.487Z,0.70
2023-01-26T01:11:09.726Z,0.70
2023-01-26T01:13:37.809Z,0.70
2023-01-26T01:16:07.456Z,0.70
2023-01-26T01:18:36.845Z,0.70
2023-01-26T01:21:07.821Z,0.70
2023-01-26T01:23:36.195Z,0.70
2023-01-26T01:26:05.206Z,0.70
2023-01-26T01:28:33.530Z,0.70
2023-01-26T01:31:04.417Z,0.70
2023-01-26T01:33:32.489Z,0.60
2023-01-26T01:36:03.741Z,0.70
2023-01-26T01:38:31.885Z,0.70
2023-01-26T01:41:00.190Z,0.70
2023-01-26T01:43:29.127Z,0.60
2023-01-26T01:45:57.676Z,0.70
2023-01-26T01:48:29.489Z,0.70
2023-01-26T01:51:01.229Z,0.70
2023-01-26T01:53:34.536Z,0.70
2023-01-26T01:56:05.634Z,0.70
2023-01-26T01:58:38.331Z,0.70
2023-01-26T02:01:06.397Z,0.60
2023-01-26T02:03:35.274Z,0.60
2023-01-26T02:06:07.707Z,0.60
2023-01-26T02:08:39.994Z,0.60
2023-01-26T02:11:11.772Z,0.70
2023-01-26T02:13:40.495Z,0.70
2023-01-26T02:16:08.458Z,0.60
2023-01-26T02:18:36.690Z,0.60
2023-01-26T02:21:07.049Z,0.60
2023-01-26T02:23:47.700Z,0.60
2023-01-26T02:26:19.084Z,0.60
2023-01-26T02:28:47.883Z,0.60
2023-01-26T02:31:17.169Z,0.60
2023-01-26T02:33:45.071Z,0.60
2023-01-26T02:36:20.834Z,0.60
2023-01-26T02:39:10.086Z,0.60
2023-01-26T02:41:57.158Z,0.60
2023-01-26T02:44:25.709Z,0.50
2023-01-26T02:46:54.733Z,0.50
2023-01-26T02:49:40.157Z,0.50
2023-01-26T02:52:08.670Z,0.50
2023-01-26T02:54:54.368Z,0.50
2023-01-26T02:57:23.624Z,0.50
2023-01-26T02:59:51.444Z,0.50
2023-01-26T03:02:19.850Z,0.50
2023-01-26T03:04:47.752Z,0.50
2023-01-26T03:07:15.823Z,0.50
2023-01-26T03:09:43.929Z,0.40
2023-01-26T03:12:11.761Z,0.40
2023-01-26T03:14:40.996Z,0.40
2023-01-26T03:17:08.826Z,0.50
2023-01-26T03:19:54.178Z,0.50
2023-01-26T03:22:39.730Z,0.50
2023-01-26T03:25:25.581Z,0.50
2023-01-26T03:27:53.375Z,0.50
2023-01-26T03:30:22.679Z,0.50
2023-01-26T03:32:50.516Z,0.50
2023-01-26T03:35:22.924Z,0.50
2023-01-26T03:37:55.513Z,0.50
2023-01-26T03:40:40.812Z,0.60
2023-01-26T03:43:26.787Z,0.60
2023-01-26T03:46:13.610Z,0.60
2023-01-26T03:48:59.136Z,0.60
2023-01-26T03:51:44.659Z,0.60
2023-01-26T03:54:30.105Z,0.60
2023-01-26T03:56:57.916Z,0.60
2023-01-26T03:59:38.522Z,0.60
2023-01-26T04:02:26.365Z,0.60
2023-01-26T04:05:12.200Z,0.60
2023-01-26T04:07:57.842Z,0.70
2023-01-26T04:10:26.841Z,0.70
2023-01-26T04:13:12.216Z,0.70
2023-01-26T04:15:57.919Z,0.70
2023-01-26T04:18:44.752Z,0.70
2023-01-26T04:21:27.810Z,0.70
2023-01-26T04:23:57.201Z,0.70
2023-01-26T04:26:25.622Z,0.70
2023-01-26T04:28:53.627Z,0.70
2023-01-26T04:31:21.493Z,0.80
2023-01-26T04:33:50.729Z,0.70
2023-01-26T04:36:18.561Z,0.70
2023-01-26T04:38:46.377Z,0.70
2023-01-26T04:41:14.188Z,0.80
2023-01-26T04:43:42.004Z,0.80
2023-01-26T04:46:10.591Z,0.80
2023-01-26T04:48:38.633Z,0.70
2023-01-26T04:51:10.967Z,0.70
2023-01-26T04:53:39.014Z,0.80
2023-01-26T04:56:08.964Z,0.80
2023-01-26T04:58:36.896Z,0.80
2023-01-26T05:01:04.736Z,0.80
2023-01-26T05:03:33.763Z,0.70
2023-01-26T05:06:01.634Z,0.80
2023-01-26T05:08:30.858Z,0.80
2023-01-26T05:10:58.693Z,0.80
2023-01-26T05:13:26.492Z,0.80
2023-01-26T05:15:54.365Z,0.80
2023-01-26T05:18:22.235Z,0.80
2023-01-26T05:20:50.085Z,0.70
2023-01-26T05:23:17.927Z,0.70
2023-01-26T05:25:47.129Z,0.70
2023-01-26T05:28:15.017Z,0.70
2023-01-26T05:30:42.980Z,0.70
2023-01-26T05:33:12.079Z,0.70
2023-01-26T05:35:40.007Z,0.70
2023-01-26T05:38:07.883Z,0.70
2023-01-26T05:40:35.694Z,0.80
2023-01-26T05:43:04.954Z,0.80
2023-01-26T05:45:32.969Z,0.80
2023-01-26T05:48:00.931Z,0.80
2023-01-26T05:50:29.263Z,0.80
2023-01-26T05:52:57.086Z,0.70
2023-01-26T05:55:24.900Z,0.80
2023-01-26T05:57:52.855Z,0.70
2023-01-26T06:00:22.949Z,0.70
2023-01-26T06:02:50.856Z,0.60
2023-01-26T06:05:18.674Z,0.60
2023-01-26T06:07:46.513Z,0.60
2023-01-26T06:10:14.469Z,0.60
2023-01-26T06:12:43.018Z,0.60
2023-01-26T06:15:12.592Z,0.60
2023-01-26T06:17:41.841Z,0.50
2023-01-26T06:20:11.348Z,0.50
2023-01-26T06:22:39.407Z,0.50
2023-01-26T06:25:07.626Z,0.50
2023-01-26T06:27:36.263Z,0.50
2023-01-26T06:30:05.341Z,0.50
2023-01-26T06:32:33.192Z,0.50
2023-01-26T06:35:03.195Z,0.50
2023-01-26T06:37:31.056Z,0.50
2023-01-26T06:39:58.888Z,0.50
2023-01-26T06:42:26.761Z,0.50
2023-01-26T06:44:54.587Z,0.50
2023-01-26T06:47:22.480Z,0.50
2023-01-26T06:49:50.306Z,0.50
2023-01-26T06:52:28.422Z,0.50
2023-01-26T06:54:58.420Z,0.50
2023-01-26T06:57:26.228Z,0.50
2023-01-26T06:59:54.086Z,0.50
2023-01-26T07:02:23.114Z,0.40
2023-01-26T07:04:51.628Z,0.50
2023-01-26T07:07:19.440Z,0.40
2023-01-26T07:09:48.655Z,0.40
2023-01-26T07:12:18.381Z,0.40
2023-01-26T07:14:46.240Z,0.40
2023-01-26T07:17:14.227Z,0.30
2023-01-26T07:19:42.046Z,0.30
2023-01-26T07:22:09.936Z,0.30
2023-01-26T07:24:38.266Z,0.30
2023-01-26T07:27:07.662Z,0.30
2023-01-26T07:29:35.580Z,0.30
2023-01-26T07:32:03.435Z,0.30
2023-01-26T07:34:31.322Z,0.30
2023-01-26T07:36:59.123Z,0.30
2023-01-26T07:39:26.945Z,0.30
2023-01-26T07:41:54.911Z,0.30
2023-01-26T07:44:24.153Z,0.20
2023-01-26T07:46:53.365Z,0.20
2023-01-26T07:49:21.283Z,0.20
2023-01-26T07:51:49.119Z,0.20
2023-01-26T07:54:16.934Z,0.20
2023-01-26T07:56:45.167Z,0.20
2023-01-26T07:59:13.234Z,0.20
2023-01-26T08:01:42.455Z,0.10
2023-01-26T08:04:11.766Z,0.20
2023-01-26T08:06:39.665Z,0.10
2023-01-26T08:09:07.885Z,0.10
2023-01-26T08:11:35.968Z,0.10
2023-01-26T08:14:03.886Z,0.10
2023-01-26T08:16:31.925Z,0.10
2023-01-26T08:19:01.289Z,0.20
2023-01-26T08:21:29.104Z,0.10
2023-01-26T08:24:01.664Z,0.20
2023-01-26T08:26:30.061Z,0.20
2023-01-26T08:28:58.411Z,0.20
2023-01-26T08:31:27.899Z,0.30
2023-01-26T08:33:56.956Z,0.30
2023-01-26T08:36:26.835Z,0.30
2023-01-26T08:38:55.376Z,0.30
2023-01-26T08:41:23.248Z,0.40
2023-01-26T08:43:52.913Z,0.30
2023-01-26T08:46:20.874Z,0.30
2023-01-26T08:48:48.739Z,0.30
2023-01-26T08:51:16.552Z,0.40
2023-01-26T08:53:46.107Z,0.40
2023-01-26T08:56:14.302Z,0.40
2023-01-26T08:58:42.174Z,0.40
2023-01-26T09:01:12.701Z,0.40
2023-01-26T09:03:40.867Z,0.40
2023-01-26T09:06:10.324Z,0.40
2023-01-26T09:08:38.280Z,0.40
2023-01-26T09:11:08.728Z,0.40
2023-01-26T09:13:37.304Z,0.40
2023-01-26T09:16:06.480Z,0.50
2023-01-26T09:18:34.616Z,0.50
2023-01-26T09:21:06.608Z,0.50
2023-01-26T09:23:35.867Z,0.50
2023-01-26T09:26:04.215Z,0.50
2023-01-26T09:28:33.406Z,0.50
2023-01-26T09:31:05.825Z,0.50
2023-01-26T09:33:34.206Z,0.40
2023-01-26T09:36:05.248Z,0.50
2023-01-26T09:38:33.388Z,0.50
2023-01-26T09:41:08.209Z,0.50
2023-01-26T09:43:43.551Z,0.50
2023-01-26T09:46:23.152Z,0.50
2023-01-26T09:49:03.163Z,0.60
2023-01-26T09:51:35.718Z,0.60
2023-01-26T09:54:07.692Z,0.60
2023-01-26T09:56:35.570Z,0.60
2023-01-26T09:59:14.559Z,0.60
2023-01-26T10:01:48.097Z,0.60
2023-01-26T10:04:23.638Z,0.60
2023-01-26T10:06:54.626Z,0.60
2023-01-26T10:09:25.228Z,0.70
2023-01-26T10:11:56.729Z,0.60
2023-01-26T10:14:34.738Z,0.60
2023-01-26T10:17:06.127Z,0.60
2023-01-26T10:19:40.230Z,0.60
2023-01-26T10:22:14.581Z,0.60
2023-01-26T10:24:43.447Z,0.60
2023-01-26T10:27:14.037Z,0.60
2023-01-26T10:29:43.284Z,0.60
2023-01-26T10:32:15.788Z,0.50
2023-01-26T10:34:44.373Z,0.60
2023-01-26T10:37:22.779Z,0.60
2023-01-26T10:40:02.230Z,0.60
2023-01-26T10:42:31.882Z,0.60
2023-01-26T10:45:03.510Z,0.60
2023-01-26T10:47:31.828Z,0.60
2023-01-26T10:50:21.466Z,0.60
2023-01-26T10:52:59.761Z,0.60
2023-01-26T10:55:28.374Z,0.60
2023-01-26T10:57:56.243Z,0.60
2023-01-26T11:00:29.839Z,0.60
2023-01-26T11:03:06.132Z,0.60
2023-01-26T11:05:34.340Z,0.60
2023-01-26T11:08:03.604Z,0.60
2023-01-26T11:10:33.845Z,0.50
2023-01-26T11:13:23.053Z,0.50
2023-01-26T11:16:04.210Z,0.50
2023-01-26T11:18:42.786Z,0.50
2023-01-26T11:21:16.948Z,0.50
2023-01-26T11:23:54.230Z,0.60
2023-01-26T11:26:39.806Z,0.60
2023-01-26T11:29:24.560Z,0.50
2023-01-26T11:32:02.225Z,0.50
2023-01-26T11:34:38.179Z,0.60
2023-01-26T11:37:45.944Z,0.60
2023-01-26T11:40:25.029Z,0.60
2023-01-26T11:43:13.470Z,0.60
2023-01-26T11:46:02.053Z,0.60
2023-01-26T11:48:41.289Z,0.60
2023-01-26T11:51:21.161Z,0.60
2023-01-26T11:54:02.814Z,0.60
2023-01-26T11:56:43.426Z,0.60
2023-01-26T11:59:15.489Z,0.60
2023-01-26T12:01:47.959Z,0.70
2023-01-26T12:04:20.629Z,0.70
2023-01-26T12:06:53.987Z,0.70
2023-01-26T12:09:32.486Z,0.60
2023-01-26T12:12:06.253Z,0.70
2023-01-26T12:14:39.380Z,0.60
2023-01-26T12:17:25.836Z,0.70
2023-01-26T12:20:04.760Z,0.60
2023-01-26T12:22:36.280Z,0.60
2023-01-26T12:25:20.333Z,0.60
2023-01-26T12:27:54.204Z,0.60
2023-01-26T12:30:32.547Z,0.50
2023-01-26T12:33:00.806Z,0.50
2023-01-26T12:35:56.392Z,0.50
2023-01-26T12:38:34.000Z,0.60
2023-01-26T12:41:11.677Z,0.60
2023-01-26T12:43:49.990Z,0.60
2023-01-26T12:46:19.284Z,0.60
2023-01-26T12:48:51.441Z,0.60
2023-01-26T12:51:26.729Z,0.60
2023-01-26T12:54:00.344Z,0.60
2023-01-26T12:56:32.682Z,0.60
2023-01-26T12:59:04.885Z,0.60
2023-01-26T13:01:40.741Z,0.60
2023-01-26T13:04:11.657Z,0.50
2023-01-26T13:06:41.196Z,0.50
2023-01-26T13:09:24.410Z,0.50
2023-01-26T13:11:54.555Z,0.50
2023-01-26T13:14:32.796Z,0.50
2023-01-26T13:17:43.726Z,0.50
2023-01-26T13:20:27.110Z,0.50
2023-01-26T13:22:57.413Z,0.50
2023-01-26T13:25:35.179Z,0.50
2023-01-26T13:28:04.552Z,0.50
2023-01-26T13:31:03.687Z,0.60
2023-01-26T13:33:32.452Z,0.60
2023-01-26T13:36:05.397Z,0.60
2023-01-26T13:38:40.051Z,0.70
2023-01-26T13:41:10.662Z,0.60
2023-01-26T13:43:44.236Z,0.60
2023-01-26T13:46:18.180Z,0.60
2023-01-26T13:48:48.772Z,0.50
2023-01-26T13:51:21.801Z,0.60
2023-01-26T13:53:57.769Z,0.60
2023-01-26T13:56:29.823Z,0.60
2023-01-26T13:59:06.558Z,0.60
2023-01-26T14:01:35.124Z,0.60
2023-01-26T14:04:04.915Z,0.60
2023-01-26T14:06:33.989Z,0.60
2023-01-26T14:09:06.464Z,0.60
2023-01-26T14:11:35.350Z,0.60
2023-01-26T14:14:03.884Z,0.60
2023-01-26T14:16:34.000Z,0.70
2023-01-26T14:19:15.489Z,0.70
2023-01-26T14:21:48.599Z,0.80
2023-01-26T14:24:18.328Z,0.70
2023-01-26T14:26:46.237Z,0.80
2023-01-26T14:29:21.888Z,0.70
2023-01-26T14:31:50.240Z,0.70
2023-01-26T14:34:22.289Z,0.70
2023-01-26T14:36:50.381Z,0.70
2023-01-26T14:39:22.133Z,0.70
2023-01-26T14:41:50.706Z,0.70
2023-01-26T14:44:18.592Z,0.70
2023-01-26T14:46:57.453Z,0.80
2023-01-26T14:49:33.878Z,0.80
2023-01-26T14:52:02.773Z,0.70
2023-01-26T14:54:37.165Z,0.80
2023-01-26T14:57:09.507Z,0.70
2023-01-26T14:59:41.170Z,0.70
2023-01-26T15:02:17.155Z,0.70
2023-01-26T15:04:48.463Z,0.70
2023-01-26T15:07:36.977Z,0.70
2023-01-26T15:10:27.713Z,0.70
2023-01-26T15:13:04.876Z,0.70
2023-01-26T15:15:37.056Z,0.70
2023-01-26T15:18:17.544Z,0.70
2023-01-26T15:21:00.095Z,0.60
2023-01-26T15:23:30.119Z,0.60
2023-01-26T15:26:05.764Z,0.60
2023-01-26T15:28:33.924Z,0.60
2023-01-26T15:31:02.164Z,0.60
2023-01-26T15:33:41.313Z,0.60
2023-01-26T15:36:24.682Z,0.60
2023-01-26T15:38:57.349Z,0.60
2023-01-26T15:41:26.629Z,0.50
2023-01-26T15:43:54.582Z,0.50
2023-01-26T15:46:22.444Z,0.50
2023-01-26T15:48:50.596Z,0.50
2023-01-26T15:51:18.561Z,0.40
2023-01-26T15:53:46.498Z,0.40
2023-01-26T15:56:16.138Z,0.40
2023-01-26T15:58:45.723Z,0.40
2023-01-26T16:01:17.981Z,0.40
2023-01-26T16:03:46.049Z,0.40
2023-01-26T16:06:21.185Z,0.30
2023-01-26T16:08:49.455Z,0.30
2023-01-26T16:11:17.998Z,0.30
2023-01-26T16:14:01.980Z,0.30
2023-01-26T16:16:31.199Z,0.30
2023-01-26T16:19:00.034Z,0.30
2023-01-26T16:21:31.409Z,0.30
2023-01-26T16:23:59.775Z,0.30
2023-01-26T16:26:28.897Z,0.30
2023-01-26T16:28:58.626Z,0.30
2023-01-26T16:31:30.082Z,0.30
2023-01-26T16:33:58.545Z,0.30
2023-01-26T16:36:26.564Z,0.20
2023-01-26T16:38:54.518Z,0.20
2023-01-26T16:41:26.206Z,0.20
2023-01-26T16:43:55.777Z,0.20
2023-01-26T16:46:27.773Z,0.20
2023-01-26T16:48:56.139Z,0.20
2023-01-26T16:51:25.730Z,0.20
2023-01-26T16:53:54.585Z,0.20
2023-01-26T16:56:23.489Z,0.30
2023-01-26T16:58:51.568Z,0.30
2023-01-26T17:01:21.936Z,0.30
2023-01-26T17:03:52.019Z,0.30
2023-01-26T17:06:20.959Z,0.30
2023-01-26T17:08:49.339Z,0.30
2023-01-26T17:11:19.022Z,0.30
2023-01-26T17:13:47.642Z,0.30
2023-01-26T17:16:18.015Z,0.30
2023-01-26T17:18:46.526Z,0.20
2023-01-26T17:21:17.656Z,0.30
2023-01-26T17:23:48.650Z,0.20
2023-01-26T17:26:17.854Z,0.20
2023-01-26T17:28:46.335Z,0.30
2023-01-26T17:31:17.696Z,0.30
2023-01-26T17:33:46.444Z,0.30
2023-01-26T17:36:16.764Z,0.30
2023-01-26T17:38:44.659Z,0.30
2023-01-26T17:41:12.760Z,0.30
2023-01-26T17:43:40.755Z,0.30
2023-01-26T17:46:11.217Z,0.40
2023-01-26T17:48:39.922Z,0.30
2023-01-26T17:51:09.048Z,0.30
2023-01-26T17:53:42.584Z,0.30
2023-01-26T17:56:12.436Z,0.30
2023-01-26T17:58:41.479Z,0.30
2023-01-26T18:01:10.921Z,0.30
2023-01-26T18:03:41.888Z,0.40
2023-01-26T18:06:10.059Z,0.40
2023-01-26T18:08:38.751Z,0.40
2023-01-26T18:11:11.002Z,0.30
2023-01-26T18:13:39.164Z,0.30
2023-01-26T18:16:08.891Z,0.30
2023-01-26T18:18:37.998Z,0.30
2023-01-26T18:21:13.169Z,0.30
2023-01-26T18:23:41.136Z,0.30
2023-01-26T18:26:10.297Z,0.30
2023-01-26T18:28:39.911Z,0.30
2023-01-26T18:31:12.537Z,0.30
2023-01-26T18:33:40.476Z,0.30
2023-01-26T18:36:11.937Z,0.30
2023-01-26T18:38:40.040Z,0.30
2023-01-26T18:41:12.608Z,0.30
2023-01-26T18:43:41.281Z,0.30
2023-01-26T18:46:10.086Z,0.30
2023-01-26T18:48:38.028Z,0.30
2023-01-26T18:51:08.544Z,0.30
2023-01-26T18:53:38.449Z,0.30
2023-01-26T18:56:08.414Z,0.30
2023-01-26T18:58:38.989Z,0.30
2023-01-26T19:01:09.764Z,0.30
2023-01-26T19:03:38.056Z,0.30
2023-01-26T19:06:07.059Z,0.30
2023-01-26T19:08:35.222Z,0.30
2023-01-26T19:11:06.352Z,0.30
2023-01-26T19:13:34.289Z,0.30
2023-01-26T19:16:03.692Z,0.30
2023-01-26T19:18:31.566Z,0.30
2023-01-26T19:21:00.293Z,0.30
2023-01-26T19:23:28.516Z,0.30
2023-01-26T19:25:57.768Z,0.30
2023-01-26T19:28:25.595Z,0.30
2023-01-26T19:30:53.475Z,0.30
2023-01-26T19:33:25.342Z,0.30
2023-01-26T19:35:53.689Z,0.30
2023-01-26T19:38:22.135Z,0.30
2023-01-26T19:40:51.736Z,0.30
2023-01-26T19:43:20.622Z,0.30
2023-01-26T19:45:50.225Z,0.30
2023-01-26T19:48:18.192Z,0.40
2023-01-26T19:50:59.228Z,0.30
2023-01-26T19:53:27.277Z,0.30
2023-01-26T19:55:55.098Z,0.30
2023-01-26T19:58:22.937Z,0.30
2023-01-26T20:00:50.920Z,0.30
2023-01-26T20:03:18.818Z,0.30
2023-01-26T20:05:47.990Z,0.30
2023-01-26T20:08:15.789Z,0.30
2023-01-26T20:10:43.593Z,0.30
2023-01-26T20:13:11.473Z,0.30
2023-01-26T20:15:40.353Z,0.30
2023-01-26T20:18:08.341Z,0.30
2023-01-26T20:20:36.301Z,0.20
2023-01-26T20:23:07.497Z,0.20
2023-01-26T20:25:37.417Z,0.30
2023-01-26T20:28:05.615Z,0.20
2023-01-26T20:30:33.658Z,0.30
2023-01-26T20:33:03.160Z,0.20
2023-01-26T20:35:31.280Z,0.20
2023-01-26T20:38:00.099Z,0.20
2023-01-26T20:40:29.868Z,0.20
2023-01-26T20:42:57.856Z,0.20
2023-01-26T20:45:25.977Z,0.20
2023-01-26T20:47:53.887Z,0.30
2023-01-26T20:50:21.858Z,0.20
2023-01-26T20:52:49.861Z,0.20
2023-01-26T20:55:17.907Z,0.20
2023-01-26T20:57:47.483Z,0.30
2023-01-26T21:00:16.075Z,0.30
2023-01-26T21:02:43.916Z,0.30
2023-01-26T21:05:11.787Z,0.30
2023-01-26T21:07:39.596Z,0.30
2023-01-26T21:10:07.834Z,0.30
2023-01-26T21:12:37.144Z,0.20
2023-01-26T21:15:07.429Z,0.30
2023-01-26T21:17:35.258Z,0.30
2023-01-26T21:20:03.063Z,0.30
2023-01-26T21:22:30.864Z,0.30
2023-01-26T21:24:58.673Z,0.30
2023-01-26T21:27:26.661Z,0.30
2023-01-26T21:29:54.545Z,0.30
2023-01-26T21:32:23.764Z,0.40
2023-01-26T21:34:51.580Z,0.30
2023-01-26T21:37:19.432Z,0.30
2023-01-26T21:39:47.281Z,0.40
2023-01-26T21:42:15.076Z,0.30
2023-01-26T21:44:56.882Z,0.30
2023-01-26T21:47:26.019Z,0.30
2023-01-26T21:49:54.141Z,0.30
2023-01-26T21:52:39.861Z,0.30
2023-01-26T21:55:08.104Z,0.30
2023-01-26T21:57:53.501Z,0.30
2023-01-26T22:00:21.826Z,0.30
2023-01-26T22:02:51.267Z,0.30
2023-01-26T22:05:19.230Z,0.40
2023-01-26T22:07:47.476Z,0.50
2023-01-26T22:10:17.102Z,0.40
2023-01-26T22:12:44.946Z,0.30
2023-01-26T22:15:13.763Z,0.30
2023-01-26T22:17:41.723Z,0.30
2023-01-26T22:20:13.095Z,0.30
2023-01-26T22:22:41.133Z,0.30
2023-01-26T22:25:10.033Z,0.40
2023-01-26T22:27:40.638Z,0.40
2023-01-26T22:30:10.207Z,0.40
2023-01-26T22:32:38.244Z,0.30
2023-01-26T22:35:06.745Z,0.30
2023-01-26T22:37:35.927Z,0.30
2023-01-26T22:40:03.737Z,0.30
2023-01-26T22:42:31.575Z,0.30
2023-01-26T22:44:59.455Z,0.30
2023-01-26T22:47:27.285Z,0.40
2023-01-26T22:49:55.123Z,0.40
2023-01-26T22:52:23.157Z,0.40
2023-01-26T22:54:52.352Z,0.40
2023-01-26T22:57:20.179Z,0.40
2023-01-26T22:59:48.013Z,0.40
2023-01-26T23:02:16.056Z,0.40
2023-01-26T23:04:43.900Z,0.40
2023-01-26T23:07:11.697Z,0.40
2023-01-26T23:09:39.613Z,0.40
2023-01-26T23:12:09.178Z,0.40
2023-01-26T23:14:37.204Z,0.40
2023-01-26T23:17:05.950Z,0.40
2023-01-26T23:19:33.833Z,0.40
2023-01-26T23:22:01.715Z,0.30
2023-01-26T23:24:29.594Z,0.40
2023-01-26T23:26:57.428Z,0.40
2023-01-26T23:29:26.859Z,0.40
2023-01-26T23:31:54.763Z,0.40
2023-01-26T23:34:22.715Z,0.40
2023-01-26T23:36:50.547Z,0.40
2023-01-26T23:39:18.483Z,0.40
2023-01-26T23:41:46.523Z,0.40
2023-01-26T23:44:14.379Z,0.40
2023-01-26T23:46:44.379Z,0.40
2023-01-26T23:49:12.250Z,0.40
2023-01-26T23:51:40.064Z,0.50
2023-01-26T23:54:07.885Z,0.40
2023-01-26T23:56:35.704Z,0.50
2023-01-26T23:59:03.521Z,0.50
